createdAt,value
2022-12-05T00:04:47.351Z,7.87
2022-12-05T00:10:03.424Z,7.87
2022-12-05T00:14:28.968Z,7.96
2022-12-05T00:18:59.439Z,7.96
2022-12-05T00:24:08.541Z,7.82
2022-12-05T00:29:18.945Z,7.82
2022-12-05T00:34:27.547Z,7.86
2022-12-05T00:39:36.538Z,7.86
2022-12-05T00:44:45.672Z,7.34
2022-12-05T00:49:57.004Z,7.34
2022-12-05T00:55:03.275Z,7.81
2022-12-05T01:00:13.032Z,7.81
2022-12-05T01:05:22.145Z,7.93
2022-12-05T01:10:52.395Z,7.93
2022-12-05T01:16:02.776Z,7.52
2022-12-05T01:21:11.306Z,7.52
2022-12-05T01:26:19.762Z,7.95
2022-12-05T01:31:28.848Z,7.95
2022-12-05T01:36:37.332Z,8.13
2022-12-05T01:41:46.477Z,8.13
2022-12-05T01:46:56.866Z,7.84
2022-12-05T01:52:06.004Z,7.84
2022-12-05T01:57:15.093Z,7.91
2022-12-05T02:02:25.382Z,7.95
2022-12-05T02:07:34.362Z,7.95
2022-12-05T02:12:49.342Z,7.62
2022-12-05T02:18:04.231Z,7.62
2022-12-05T02:23:20.414Z,7.8
2022-12-05T02:28:36.546Z,7.8
2022-12-05T02:33:52.074Z,7.46
2022-12-05T02:39:08.232Z,7.46
2022-12-05T02:44:23.118Z,8.15
2022-12-05T02:49:39.360Z,8.15
2022-12-05T02:54:54.180Z,8.25
2022-12-05T03:00:09.030Z,8.25
2022-12-05T03:05:23.941Z,7.97
2022-12-05T03:10:38.870Z,7.97
2022-12-05T03:15:54.969Z,7.5
2022-12-05T03:21:09.829Z,7.5
2022-12-05T03:26:25.349Z,8.09
2022-12-05T03:31:41.542Z,8.09
2022-12-05T03:36:57.675Z,7.83
2022-12-05T03:41:22.555Z,7.83
2022-12-05T03:45:51.997Z,8.13
2022-12-05T03:51:04.505Z,8.13
2022-12-05T03:56:19.123Z,7.95
2022-12-05T04:01:34.045Z,7.95
2022-12-05T04:06:49.511Z,7.97
2022-12-05T04:12:05.059Z,7.97
2022-12-05T04:17:20.609Z,7.82
2022-12-05T04:22:36.703Z,7.82
2022-12-05T04:34:37.109Z,7.95
2022-12-05T04:39:54.278Z,7.9
2022-12-05T04:45:11.288Z,7.9
2022-12-05T04:50:28.036Z,7.8
2022-12-05T04:55:44.859Z,7.89
2022-12-05T05:00:11.021Z,7.89
2022-12-05T05:03:47.234Z,7.89
2022-12-05T05:08:18.039Z,7.89
2022-12-05T05:13:27.899Z,7.8
2022-12-05T05:18:37.019Z,7.8
2022-12-05T05:23:45.496Z,7.73
2022-12-05T05:28:55.924Z,7.73
2022-12-05T05:34:10.332Z,8.07
2022-12-05T05:39:14.153Z,8.07
2022-12-05T05:44:23.899Z,7.8
2022-12-05T05:49:33.655Z,7.8
2022-12-05T05:54:41.537Z,7.49
2022-12-05T05:59:49.992Z,7.49
2022-12-05T06:05:00.386Z,7.77
2022-12-05T06:10:09.494Z,7.77
2022-12-05T06:15:17.977Z,7.53
2022-12-05T06:20:27.094Z,7.53
2022-12-05T06:25:36.237Z,7.54
2022-12-05T06:30:45.345Z,7.54
2022-12-05T06:35:54.493Z,7.82
2022-12-05T06:41:03.108Z,7.82
2022-12-05T06:46:18.349Z,7.68
2022-12-05T06:51:33.184Z,7.68
2022-12-05T06:56:48.073Z,7.61
2022-12-05T07:02:03.713Z,7.61
2022-12-05T07:07:19.138Z,7.32
2022-12-05T07:11:58.943Z,7.32
2022-12-05T07:17:56.891Z,7.58
2022-12-05T07:27:32.466Z,7.33
2022-12-05T07:33:37.391Z,7.33
2022-12-05T07:44:10.316Z,7.14
2022-12-05T07:54:41.994Z,7.31
2022-12-05T08:05:13.105Z,7.42
2022-12-05T08:10:28.582Z,7.42
2022-12-05T08:15:46.022Z,7.53
2022-12-05T08:21:00.867Z,7.53
2022-12-05T08:26:17.024Z,7.45
2022-12-05T08:30:41.938Z,7.45
2022-12-05T08:35:08.711Z,7.26
2022-12-05T08:40:24.236Z,7.26
2022-12-05T08:45:40.544Z,7.47
2022-12-05T08:50:55.940Z,7.47
2022-12-05T08:56:10.789Z,7.54
2022-12-05T09:01:27.020Z,7.54
2022-12-05T09:06:06.990Z,7.61
2022-12-05T09:10:26.911Z,7.61
2022-12-05T09:15:35.712Z,7.44
2022-12-05T09:21:15.263Z,7.44
2022-12-05T09:25:57.677Z,7.28
2022-12-05T09:31:11.965Z,7.28
2022-12-05T09:36:27.195Z,7.6
2022-12-05T09:41:41.665Z,7.6
2022-12-05T09:46:57.209Z,7.42
2022-12-05T09:52:12.070Z,7.42
2022-12-05T09:57:32.091Z,7.24
2022-12-05T10:02:42.544Z,7.24
2022-12-05T10:07:57.442Z,7.51
2022-12-05T10:13:13.528Z,7.51
2022-12-05T10:18:29.036Z,7.75
2022-12-05T10:23:59.458Z,7.75
2022-12-05T10:29:04.239Z,7.57
2022-12-05T10:33:28.237Z,7.57
2022-12-05T10:37:58.619Z,7.65
2022-12-05T10:43:07.767Z,7.65
2022-12-05T10:48:16.858Z,7.91
2022-12-05T10:53:25.978Z,7.91
2022-12-05T10:58:35.753Z,7.77
2022-12-05T11:03:49.868Z,8.23
2022-12-05T11:09:07.882Z,8.23
2022-12-05T11:14:25.170Z,7.79
2022-12-05T11:19:43.245Z,7.79
2022-12-05T11:25:00.551Z,7.59
2022-12-05T11:30:16.366Z,7.59
2022-12-05T11:35:33.749Z,7.45
2022-12-05T11:40:52.365Z,7.45
2022-12-05T11:46:09.857Z,7.69
2022-12-05T11:51:27.406Z,7.69
2022-12-05T11:55:54.839Z,7.65
2022-12-05T12:00:27.132Z,7.65
2022-12-05T12:05:36.870Z,7.82
2022-12-05T12:10:45.406Z,7.82
2022-12-05T12:15:55.111Z,7.95
2022-12-05T12:21:04.911Z,7.95
2022-12-05T12:28:27.403Z,7.71
2022-12-05T12:33:43.784Z,7.71
2022-12-05T12:38:59.724Z,7.72
2022-12-05T12:43:53.923Z,7.72
2022-12-05T12:47:56.389Z,7.9
2022-12-05T12:53:06.796Z,7.9
2022-12-05T12:58:16.544Z,7.59
2022-12-05T13:03:25.689Z,7.59
2022-12-05T13:08:34.785Z,7.56
2022-12-05T13:13:45.212Z,7.56
2022-12-05T13:18:54.297Z,7.31
2022-12-05T13:24:04.013Z,7.34
2022-12-05T13:29:11.915Z,7.34
2022-12-05T13:34:20.399Z,7.33
2022-12-05T13:39:29.494Z,7.33
2022-12-05T13:44:39.251Z,7.29
2022-12-05T13:49:49.697Z,7.29
2022-12-05T13:54:58.141Z,7.27
2022-12-05T14:00:07.329Z,7.27
2022-12-05T14:05:15.756Z,7.57
2022-12-05T14:10:32.526Z,7.57
2022-12-05T14:15:50.464Z,7.49
2022-12-05T14:21:07.896Z,7.49
2022-12-05T14:26:25.329Z,7.41
2022-12-05T14:31:41.646Z,7.41
2022-12-05T14:36:59.080Z,7.43
2022-12-05T14:42:15.245Z,7.43
2022-12-05T14:47:31.336Z,7.34
2022-12-05T14:58:07.081Z,7.33
2022-12-05T15:08:41.185Z,7.54
2022-12-05T15:19:14.660Z,7.51
2022-12-05T15:24:32.065Z,7.51
2022-12-05T15:29:57.478Z,7.32
2022-12-05T15:35:04.779Z,7.32
2022-12-05T15:40:21.829Z,7.27
2022-12-05T15:45:40.161Z,7.27
2022-12-05T15:49:16.699Z,7.4
2022-12-05T15:54:33.132Z,7.4
2022-12-05T15:59:52.200Z,7.36
2022-12-05T16:05:09.638Z,7.36
2022-12-05T16:09:36.447Z,7.12
2022-12-05T16:14:06.320Z,7.12
2022-12-05T16:19:16.065Z,7.24
2022-12-05T16:24:25.179Z,7.03
2022-12-05T16:29:34.994Z,7.03
2022-12-05T16:34:44.052Z,7.16
2022-12-05T16:39:53.181Z,7.16
2022-12-05T16:45:02.887Z,7
2022-12-05T16:50:10.157Z,7
2022-12-05T16:55:19.267Z,7.13
2022-12-05T17:00:29.031Z,7.13
2022-12-05T17:05:37.588Z,7.22
2022-12-05T17:10:47.290Z,7.22
2022-12-05T17:15:56.706Z,7.14
2022-12-05T17:21:04.853Z,7.14
2022-12-05T17:26:15.891Z,7.1
2022-12-05T17:31:24.845Z,7.1
2022-12-05T17:36:37.316Z,7.14
2022-12-05T17:41:53.957Z,7.14
2022-12-05T17:47:10.775Z,7.15
2022-12-05T18:22:56.875Z,7.06
2022-12-05T18:39:47.271Z,7
2022-12-05T18:50:19.591Z,7.1
2022-12-05T18:56:20.327Z,7.1
2022-12-05T19:06:05.540Z,7.07
2022-12-05T19:11:21.728Z,7.13
2022-12-05T19:16:37.268Z,7.13
2022-12-05T19:21:52.740Z,7.18
2022-12-05T19:27:08.862Z,7.15
2022-12-05T19:32:23.749Z,7.15
2022-12-05T19:37:39.937Z,7.18
2022-12-05T19:42:55.424Z,7.18
2022-12-05T19:48:17.845Z,7.14
2022-12-05T19:52:37.144Z,7.14
2022-12-05T19:57:01.997Z,7.2
2022-12-05T20:02:16.945Z,7.2
2022-12-05T20:07:32.396Z,7.07
2022-12-05T20:11:58.553Z,7.07
2022-12-05T20:16:29.809Z,7.01
2022-12-05T20:21:39.431Z,7.01
2022-12-05T20:26:48.693Z,7.19
2022-12-05T20:31:58.947Z,7.19
2022-12-05T20:37:09.335Z,7.17
2022-12-05T20:42:18.363Z,7.17
2022-12-05T20:47:28.229Z,7.15
2022-12-05T20:52:47.301Z,7.15
2022-12-05T20:57:47.744Z,7.33
2022-12-05T21:02:57.304Z,7.33
2022-12-05T21:08:07.815Z,7.4
2022-12-05T21:13:16.382Z,7.4
2022-12-05T21:18:25.551Z,7.15
2022-12-05T21:23:35.903Z,7.15
2022-12-05T21:28:45.047Z,7.21
2022-12-05T21:33:53.517Z,7.21
2022-12-05T21:39:03.253Z,7.14
2022-12-05T21:44:12.400Z,7.14
2022-12-05T21:49:20.863Z,7.02
2022-12-05T21:54:30.609Z,7.02
2022-12-05T21:59:40.219Z,7.23
2022-12-05T22:04:55.823Z,7.23
2022-12-05T22:10:11.909Z,6.95
2022-12-05T22:15:28.708Z,6.95
2022-12-05T22:20:44.262Z,7.05
2022-12-05T22:25:59.752Z,7.18
2022-12-05T22:31:14.661Z,7.18
2022-12-05T22:36:30.821Z,7.21
2022-12-05T22:41:46.951Z,7.21
2022-12-05T22:47:10.784Z,7.15
2022-12-05T22:52:18.024Z,7.15
2022-12-05T23:02:49.044Z,7.29
2022-12-05T23:08:05.287Z,7.17
2022-12-05T23:13:21.347Z,7.17
2022-12-05T23:18:36.231Z,7.23
2022-12-05T23:23:51.757Z,7.23
2022-12-05T23:28:16.620Z,7.17
2022-12-05T23:32:41.539Z,7.17
2022-12-05T23:37:57.035Z,7.31
2022-12-05T23:43:13.187Z,7.31
2022-12-05T23:48:29.411Z,7.08
2022-12-05T23:53:45.532Z,7.08
2022-12-05T23:59:01.027Z,7.18
